Terminal Aerodrome Forecast
Issued by NWS Glasgow, MT

Home | Current Version | Previous Version | Text Only | Print | Product List | Glossary On
Versions: 1 2 3 4 5 6 7 8 9 10 11 12 13 14 15 16 17 18 19 20 21
000
FTUS45 KGGW 011100
TAFGGW
TAF
KGGW 011121Z 0112/0212 VRB05KT 5SM BR SCT100
     FM011500 VRB05KT P6SM SCT100
     FM011800 VRB05KT P6SM VCTS BKN090CB
     FM020000 34011KT P6SM VCSH BKN090
     FM020600 VRB06KT P6SM BKN140=

USA.gov is the U.S. government's official web portal to all federal, state and local government web resources and services.